< < Back
Terminal Aerodrome Forecast


Current Version              Previous Versions:   1  2  3  4  5  6  7  8  9  

Terminal Aerodrome Forecast

851
FTUS42 KGSP 021128
TAFGSP
TAF
KGSP 021128Z 0212/0312 21005KT 4SM BR SCT003
     FM021300 23008KT P6SM SCT035 BKN080
     FM021800 22010G20KT P6SM -TSRA OVC040CB
     FM030000 22011KT P6SM -TSRA OVC040CB
     FM030600 21011KT P6SM VCSH BKN040=

Latest METAR

894
SAUS70 KWBC 021200 RRL
MTRGSP
METAR KGSP 021153Z 00000KT 2 1/2SM BR BKN003 OVC110 20/19 A3003 RMK AO2
LTG DSNT SE AND S SLP158 70009 T02000189 10200 20178
53009


USA.gov is the U.S. government's official web portal to all federal, state and local government web resources and services.